Time;durP1;ratioP1;P1;durP2;ratioP2;P2;SDS_P1;SDS_P2;PMS_P1;PMS_P2;Temp;Humidity;BMP_temperature;BMP_pressure;BME280_temperature;BME280_humidity;BME280_pressure;Samples;Min_cycle;Max_cycle;Signal;HPM_P1;HPM_P2
2023/07/23 00:01:44;;;;;;;17.63;6.80;;;;;;;28.74;57.63;99745.78;5107330;28;20023;-23
2023/07/23 00:04:10;;;;;;;15.60;7.28;;;;;;;28.47;58.38;99726.19;5107339;28;20046;-24
2023/07/23 00:06:37;;;;;;;15.60;6.43;;;;;;;28.67;57.44;99745.56;5107320;28;20416;-24
2023/07/23 00:09:03;;;;;;;;;;;;;;;28.75;57.13;99750.09;5107267;28;20034;-24
2023/07/23 00:11:29;;;;;;;16.17;7.38;;;;;;;28.96;56.53;99749.94;5107029;27;19920;-23
2023/07/23 00:13:55;;;;;;;16.08;6.60;;;;;;;28.89;56.83;99738.75;5107089;28;20027;-24
2023/07/23 00:16:23;;;;;;;13.00;6.83;;;;;;;28.26;59.26;99742.81;5107102;28;20035;-23
2023/07/23 00:18:49;;;;;;;16.08;7.38;;;;;;;28.00;59.29;99737.72;5106989;28;20031;-24
2023/07/23 00:21:15;;;;;;;15.70;6.18;;;;;;;28.30;57.58;99754.69;5106660;28;20030;-24
2023/07/23 00:23:40;;;;;;;16.67;6.80;;;;;;;28.41;57.73;99772.25;5106922;28;20031;-23
2023/07/23 00:26:05;;;;;;;15.57;6.82;;;;;;;28.45;57.38;99783.34;5106838;28;20024;-24
2023/07/23 00:28:31;;;;;;;13.73;6.88;;;;;;;28.18;58.33;99790.34;5106823;28;20032;-24
2023/07/23 00:30:56;;;;;;;17.35;6.97;;;;;;;27.65;60.20;99790.97;5106453;28;20022;-24
2023/07/23 00:33:24;;;;;;;16.30;7.03;;;;;;;27.88;59.78;99807.00;5106860;28;20028;-24
2023/07/23 00:35:50;;;;;;;20.17;7.93;;;;;;;28.09;58.65;99814.31;5106538;28;20038;-25
2023/07/23 00:38:15;;;;;;;20.40;7.60;;;;;;;28.13;58.51;99824.25;5106261;28;20023;-23
2023/07/23 00:40:41;;;;;;;20.05;7.15;;;;;;;28.00;57.94;99823.47;5106691;28;20499;-24
2023/07/23 00:43:10;;;;;;;16.02;7.75;;;;;;;27.42;60.90;99825.38;5106447;28;20387;-23
2023/07/23 00:45:38;;;;;;;16.65;8.07;;;;;;;27.67;59.34;99826.25;5106649;28;20024;-24
2023/07/23 00:48:04;;;;;;;17.55;8.35;;;;;;;27.68;60.18;99827.84;5106140;27;20168;-27
2023/07/23 00:50:29;;;;;;;19.80;9.15;;;;;;;27.48;60.68;99829.50;5106546;28;20514;-24
2023/07/23 00:52:56;;;;;;;21.83;9.80;;;;;;;27.37;60.74;99825.59;5106215;28;20028;-25
2023/07/23 00:55:23;;;;;;;28.88;13.30;;;;;;;27.51;60.29;99828.06;5106280;28;20035;-23
2023/07/23 00:57:48;;;;;;;44.78;24.08;;;;;;;27.63;60.53;99828.88;5106425;28;20039;-24
2023/07/23 01:00:14;;;;;;;57.60;31.83;;;;;;;27.40;60.51;99833.97;5105922;28;20039;-24
2023/07/23 01:02:39;;;;;;;53.08;29.38;;;;;;;27.38;59.87;99841.72;5106554;28;20027;-24
2023/07/23 01:05:06;;;;;;;38.67;19.65;;;;;;;27.15;62.83;99841.22;5105735;28;20446;-24
2023/07/23 01:07:33;;;;;;;30.33;15.75;;;;;;;26.90;63.98;99834.06;5106137;28;20032;-24
2023/07/23 01:10:02;;;;;;;33.28;17.85;;;;;;;26.53;65.56;99840.06;5106477;28;20038;-24
2023/07/23 01:12:28;;;;;;;19.45;11.18;;;;;;;26.49;65.24;99843.81;5105578;28;20127;-23
2023/07/23 01:14:53;;;;;;;21.50;10.80;;;;;;;26.64;64.86;99837.78;5106168;28;20505;-24
2023/07/23 01:17:19;;;;;;;20.63;9.70;;;;;;;26.55;65.46;99835.06;5105890;28;20015;-24
2023/07/23 01:19:45;;;;;;;19.60;9.25;;;;;;;26.69;64.32;99826.66;5105736;28;20688;-24
2023/07/23 01:22:13;;;;;;;19.33;8.70;;;;;;;26.82;64.69;99838.44;5105701;28;20019;-23
2023/07/23 01:24:39;;;;;;;16.98;8.77;;;;;;;26.97;64.10;99858.94;5105555;28;20024;-24
2023/07/23 01:27:05;;;;;;;12.95;6.90;;;;;;;26.77;65.24;99849.59;5105481;28;20746;-25
2023/07/23 01:29:30;;;;;;;15.00;7.18;;;;;;;26.20;67.88;99859.09;5106117;28;20054;-24
2023/07/23 01:31:56;;;;;;;19.35;7.60;;;;;;;26.14;68.75;99844.00;5105867;28;20051;-23
2023/07/23 01:34:22;;;;;;;17.23;8.10;;;;;;;26.55;66.76;99869.81;5105435;28;20031;-23
2023/07/23 01:36:48;;;;;;;18.70;7.97;;;;;;;26.66;66.72;99871.06;5105604;28;20066;-22
2023/07/23 01:39:14;;;;;;;15.20;7.32;;;;;;;26.82;65.74;99879.50;5105122;28;20024;-22
2023/07/23 01:41:39;;;;;;;16.13;8.25;;;;;;;26.29;68.09;99868.03;5105659;28;20030;-22
2023/07/23 01:44:05;;;;;;;14.45;8.57;;;;;;;26.55;66.47;99875.31;5105292;28;20024;-25
2023/07/23 01:46:31;;;;;;;15.50;7.80;;;;;;;26.63;66.99;99888.94;5105728;28;20640;-22
2023/07/23 01:48:56;;;;;;;18.65;7.03;;;;;;;26.75;65.92;99884.69;5105072;28;20039;-23
2023/07/23 01:51:22;;;;;;;16.55;7.38;;;;;;;26.78;66.19;99879.34;5105048;28;20514;-22
2023/07/23 01:53:47;;;;;;;15.85;7.05;;;;;;;26.75;66.09;99888.22;5105429;28;20020;-22
2023/07/23 01:56:13;;;;;;;15.35;7.63;;;;;;;26.46;67.36;99886.28;5105243;28;20031;-22
2023/07/23 01:58:38;;;;;;;18.05;7.30;;;;;;;26.34;67.81;99886.19;5104898;28;20063;-24
2023/07/23 02:01:04;;;;;;;17.45;7.40;;;;;;;26.53;67.03;99893.97;5105017;28;20044;-24
2023/07/23 02:03:30;;;;;;;16.60;7.22;;;;;;;26.48;66.52;99894.16;5105089;28;20019;-25
2023/07/23 02:05:57;;;;;;;20.02;7.68;;;;;;;26.42;67.08;99890.81;5104579;28;20066;-24
2023/07/23 02:08:25;;;;;;;14.30;7.28;;;;;;;26.39;67.15;99895.00;5105298;28;20119;-24
2023/07/23 02:10:57;;;;;;;15.38;6.40;;;;;;;26.30;67.21;99886.03;5105025;28;20054;-24
2023/07/23 02:13:23;;;;;;;14.48;6.95;;;;;;;26.43;65.75;99892.41;5104697;28;20470;-24
2023/07/23 02:15:48;;;;;;;14.30;5.55;;;;;;;26.46;65.21;99900.75;5104892;28;20061;-22
2023/07/23 02:18:14;;;;;;;15.43;5.97;;;;;;;26.34;65.68;99903.38;5104771;28;20053;-23
2023/07/23 02:20:42;;;;;;;15.52;6.50;;;;;;;26.02;66.55;99902.06;5104638;28;20114;-22
2023/07/23 02:23:07;;;;;;;15.10;6.28;;;;;;;26.26;66.62;99918.69;5104810;28;20435;-23
2023/07/23 02:25:41;;;;;;;13.10;7.10;;;;;;;26.24;66.39;99922.88;5104854;28;20035;-22
2023/07/23 02:28:11;;;;;;;15.27;7.20;;;;;;;26.26;66.28;99920.63;5105377;28;20027;-27
2023/07/23 02:30:37;;;;;;;14.98;6.50;;;;;;;26.53;65.29;99926.78;5104751;28;20024;-24
2023/07/23 02:33:03;;;;;;;17.33;7.32;;;;;;;26.46;65.40;99927.31;5104739;28;20030;-25
2023/07/23 02:35:28;;;;;;;14.80;6.55;;;;;;;26.39;65.44;99938.72;5103794;28;20409;-22
2023/07/23 02:37:54;;;;;;;16.45;6.68;;;;;;;25.89;67.88;99931.16;5104221;28;20022;-23
2023/07/23 02:40:19;;;;;;;19.33;7.50;;;;;;;25.96;67.59;99926.03;5104465;28;20028;-22
2023/07/23 02:42:47;;;;;;;21.98;6.82;;;;;;;26.04;67.25;99927.94;5104563;28;20077;-22
2023/07/23 02:45:13;;;;;;;16.27;6.55;;;;;;;26.00;67.49;99921.50;5104370;28;20035;-23
2023/07/23 02:47:38;;;;;;;16.40;5.90;;;;;;;25.97;67.22;99922.19;5104158;28;20028;-23
2023/07/23 02:50:04;;;;;;;14.63;6.10;;;;;;;26.01;67.13;99939.53;5105028;28;20027;-23
2023/07/23 02:52:29;;;;;;;20.10;6.30;;;;;;;26.13;66.38;99943.50;5104691;28;20020;-23
2023/07/23 02:54:55;;;;;;;16.23;6.53;;;;;;;25.98;67.02;99944.81;5104478;28;20028;-22
2023/07/23 02:57:23;;;;;;;15.23;6.03;;;;;;;25.77;68.09;99956.41;5104616;28;20036;-22
2023/07/23 02:59:48;;;;;;;18.55;6.07;;;;;;;25.58;68.70;99947.75;5103963;28;20069;-23
2023/07/23 03:02:14;;;;;;;14.77;5.88;;;;;;;25.78;68.14;99946.28;5104300;28;20020;-24
2023/07/23 03:04:41;;;;;;;16.45;6.07;;;;;;;25.45;69.41;99952.25;5104293;28;20034;-22
2023/07/23 03:07:09;;;;;;;12.27;5.65;;;;;;;25.26;70.23;99958.81;5104671;28;20036;-22
2023/07/23 03:09:35;;;;;;;13.68;5.80;;;;;;;25.49;69.37;99950.47;5104559;28;20027;-23
2023/07/23 03:12:00;;;;;;;16.75;5.47;;;;;;;25.70;68.59;99949.81;5103988;28;20034;-22
2023/07/23 03:14:26;;;;;;;12.95;5.20;;;;;;;25.72;68.50;99947.56;5104309;28;20031;-22
2023/07/23 03:16:51;;;;;;;15.73;5.38;;;;;;;25.67;68.51;99946.63;5104089;28;20031;-22
2023/07/23 03:19:17;;;;;;;14.60;5.43;;;;;;;25.23;70.24;99959.47;5104068;28;20045;-23
2023/07/23 03:21:42;;;;;;;13.02;4.53;;;;;;;25.61;68.70;99953.38;5103928;28;20024;-23
2023/07/23 03:24:07;;;;;;;16.38;5.38;;;;;;;25.69;68.59;99953.69;5104370;28;20034;-26
2023/07/23 03:26:33;;;;;;;20.60;5.55;;;;;;;25.42;69.74;99948.25;5104224;28;20028;-22
2023/07/23 03:28:58;;;;;;;15.90;5.93;;;;;;;25.64;68.91;99958.19;5103734;28;20035;-24
2023/07/23 03:31:24;;;;;;;16.15;4.80;;;;;;;25.83;67.99;99965.25;5104023;28;20020;-22
2023/07/23 03:33:49;;;;;;;13.23;6.18;;;;;;;25.77;68.47;99963.81;5104170;28;20032;-22
2023/07/23 03:36:14;;;;;;;17.83;5.68;;;;;;;25.75;68.69;99975.03;5104267;28;20133;-22
2023/07/23 03:38:40;;;;;;;12.40;4.68;;;;;;;25.80;68.61;99980.31;5103981;28;20426;-22
2023/07/23 03:41:05;;;;;;;14.40;5.20;;;;;;;26.29;66.30;99988.31;5103962;28;20468;-22
2023/07/23 03:43:31;;;;;;;13.65;5.80;;;;;;;26.11;67.08;99986.75;5103613;28;20075;-23
2023/07/23 03:45:56;;;;;;;11.70;5.18;;;;;;;26.17;66.36;99991.69;5104967;28;20073;-22
2023/07/23 03:48:21;;;;;;;15.68;6.10;;;;;;;26.00;68.00;99991.75;5107619;28;20089;-22
2023/07/23 03:50:47;;;;;;;12.65;5.55;;;;;;;26.18;67.31;99992.53;5107597;28;20017;-23
2023/07/23 03:53:12;;;;;;;10.75;5.15;;;;;;;26.31;67.01;100002.44;5107400;28;20027;-22
2023/07/23 03:55:38;;;;;;;12.02;5.32;;;;;;;26.23;67.32;100004.06;5107536;28;20115;-23
2023/07/23 03:58:03;;;;;;;12.80;5.25;;;;;;;26.45;66.34;100008.50;5107364;28;20047;-24
2023/07/23 04:00:31;;;;;;;12.20;5.90;;;;;;;26.41;67.13;100006.75;5107305;28;20043;-23
2023/07/23 04:02:56;;;;;;;;;;;;;;;26.48;66.42;100017.19;5107905;28;20523;-24
2023/07/23 04:05:21;;;;;;;14.17;5.83;;;;;;;26.43;66.62;100021.72;5106985;28;19927;-24
2023/07/23 04:07:47;;;;;;;12.13;5.38;;;;;;;26.31;67.09;100018.84;5106946;28;20288;-23
2023/07/23 04:10:12;;;;;;;11.65;5.75;;;;;;;26.34;67.63;100031.88;5107070;28;20498;-23
2023/07/23 04:12:38;;;;;;;13.48;5.88;;;;;;;26.67;65.32;100031.31;5106949;28;20040;-24
2023/07/23 04:15:03;;;;;;;12.30;5.68;;;;;;;26.46;66.63;100026.53;5106795;28;20762;-25
2023/07/23 04:17:29;;;;;;;14.63;5.25;;;;;;;26.35;67.83;100028.00;5107261;28;20832;-23
2023/07/23 04:19:54;;;;;;;13.60;5.40;;;;;;;26.63;66.54;100038.56;5106790;28;20059;-23
2023/07/23 04:22:20;;;;;;;15.45;5.47;;;;;;;26.60;67.25;100029.09;5106794;28;20028;-23
2023/07/23 04:24:48;;;;;;;13.00;5.57;;;;;;;26.61;66.45;100027.16;5106824;28;20557;-23
2023/07/23 04:27:16;;;;;;;17.17;5.57;;;;;;;26.81;65.56;100025.63;5105090;28;20047;-26
2023/07/23 04:29:41;;;;;;;11.88;5.75;;;;;;;26.80;65.63;100030.28;5106840;28;20020;-23
2023/07/23 04:32:11;;;;;;;14.43;5.15;;;;;;;27.07;64.51;100022.75;5107035;28;20409;-24
2023/07/23 04:34:37;;;;;;;15.10;5.50;;;;;;;27.11;64.42;100018.22;5107184;28;20062;-23
2023/07/23 04:37:02;;;;;;;13.75;5.32;;;;;;;27.44;63.41;100028.50;5106635;28;20047;-23
2023/07/23 04:39:28;;;;;;;13.18;5.55;;;;;;;27.18;64.43;100028.66;5106808;28;20023;-23
2023/07/23 04:41:53;;;;;;;11.63;4.90;;;;;;;27.30;64.51;100031.50;5106394;28;20351;-24
2023/07/23 04:44:19;;;;;;;15.55;5.15;;;;;;;27.46;63.02;100039.91;5106312;28;20024;-24
2023/07/23 04:46:44;;;;;;;11.82;5.47;;;;;;;27.31;63.49;100033.09;5106406;28;20038;-23
2023/07/23 04:49:09;;;;;;;13.82;5.40;;;;;;;27.31;63.37;100043.25;5106587;28;20042;-27
2023/07/23 04:51:35;;;;;;;16.23;5.43;;;;;;;27.59;63.22;100032.59;5106758;27;20104;-24
2023/07/23 04:54:01;;;;;;;13.80;5.45;;;;;;;27.69;62.29;100037.66;5106389;28;20116;-24
2023/07/23 04:56:27;;;;;;;14.20;5.60;;;;;;;27.76;62.12;100037.13;5106494;28;20027;-24
2023/07/23 04:58:53;;;;;;;13.20;5.82;;;;;;;27.90;61.46;100037.69;5104743;28;20027;-24
2023/07/23 05:01:18;;;;;;;9.98;4.80;;;;;;;28.03;62.33;100042.09;5106005;28;20031;-24
2023/07/23 05:03:43;;;;;;;12.50;4.60;;;;;;;28.12;60.97;100041.19;5106177;28;20031;-25
2023/07/23 05:06:11;;;;;;;11.45;4.68;;;;;;;28.34;59.94;100035.31;5106258;28;20393;-28
2023/07/23 05:08:36;;;;;;;15.38;5.05;;;;;;;28.32;60.14;100037.59;5106187;27;20122;-24
2023/07/23 05:11:04;;;;;;;12.23;4.93;;;;;;;28.37;60.61;100053.81;5105863;28;20034;-24
2023/07/23 05:13:30;;;;;;;15.57;4.60;;;;;;;28.51;59.06;100047.25;5106002;28;20572;-23
2023/07/23 05:15:58;;;;;;;9.57;4.30;;;;;;;28.44;58.17;100034.88;5106173;28;20039;-23
2023/07/23 05:18:24;;;;;;;10.90;5.15;;;;;;;28.28;60.06;100053.13;5105820;28;20028;-23
2023/07/23 05:20:49;;;;;;;10.75;4.68;;;;;;;28.71;58.22;100062.84;5106040;28;20028;-24
2023/07/23 05:23:15;;;;;;;10.68;4.28;;;;;;;28.44;58.97;100051.34;5105527;28;20078;-23
2023/07/23 05:25:44;;;;;;;9.65;4.93;;;;;;;28.36;59.73;100044.00;5105381;28;20081;-27
2023/07/23 05:28:10;;;;;;;12.02;4.47;;;;;;;28.44;58.67;100053.25;5105687;28;20447;-27
2023/07/23 05:30:36;;;;;;;14.68;6.03;;;;;;;28.41;58.86;100045.72;5106018;28;20488;-24
2023/07/23 05:33:02;;;;;;;9.65;4.40;;;;;;;28.52;58.72;100040.63;5105547;28;20019;-24
2023/07/23 05:35:28;;;;;;;10.60;4.57;;;;;;;28.78;58.30;100040.31;5105424;28;20696;-24
2023/07/23 05:37:53;;;;;;;11.30;5.18;;;;;;;28.68;58.78;100058.03;5105178;28;20022;-24
2023/07/23 05:40:20;;;;;;;11.27;4.47;;;;;;;28.73;59.33;100062.47;5105448;28;20030;-25
2023/07/23 05:42:45;;;;;;;15.43;4.97;;;;;;;28.91;59.31;100060.31;5105497;28;20058;-24
2023/07/23 05:45:11;;;;;;;13.90;4.82;;;;;;;28.80;58.51;100063.53;5104851;28;20042;-24
2023/07/23 05:47:36;;;;;;;12.15;4.18;;;;;;;28.92;59.00;100070.19;5105615;28;20460;-25
2023/07/23 05:50:02;;;;;;;10.13;4.35;;;;;;;28.87;58.56;100073.13;5105494;28;20024;-23
2023/07/23 05:52:28;;;;;;;10.40;4.82;;;;;;;28.91;58.61;100068.56;5104870;28;20063;-23
2023/07/23 05:54:53;;;;;;;9.48;4.38;;;;;;;29.06;58.37;100076.13;5104987;28;20053;-32
2023/07/23 05:57:21;;;;;;;10.25;4.55;;;;;;;29.38;58.04;100076.34;5104969;28;20032;-24
2023/07/23 05:59:48;;;;;;;10.70;4.13;;;;;;;29.33;57.77;100084.84;5104792;28;20036;-25
2023/07/23 06:02:13;;;;;;;;;;;;;;;29.40;56.78;100085.03;5105440;28;20549;-24
2023/07/23 06:04:41;;;;;;;15.50;4.50;;;;;;;29.63;56.21;100080.66;5104776;28;19912;-25
2023/07/23 06:07:06;;;;;;;11.05;4.55;;;;;;;29.62;56.95;100081.78;5104800;28;20547;-23
2023/07/23 06:09:34;;;;;;;11.63;4.07;;;;;;;29.77;55.84;100074.00;5104415;28;20027;-24
2023/07/23 06:12:02;;;;;;;;;;;;;;;29.70;56.42;100060.81;5105515;28;20028;-24
2023/07/23 06:14:29;;;;;;;9.05;4.43;;;;;;;29.84;55.48;100065.97;5104973;28;19919;-24
2023/07/23 06:16:57;;;;;;;11.30;5.07;;;;;;;29.96;55.40;100063.19;5104792;28;20047;-24
2023/07/23 06:19:25;;;;;;;11.88;4.20;;;;;;;29.53;56.55;100056.41;5104940;28;20019;-24
2023/07/23 06:21:51;;;;;;;13.20;6.47;;;;;;;29.57;56.50;100046.31;5104587;28;20055;-23
2023/07/23 06:24:23;;;;;;;13.38;5.80;;;;;;;30.02;56.22;100050.78;5104782;28;20430;-23
2023/07/23 06:26:51;;;;;;;13.75;4.80;;;;;;;30.11;54.85;100055.31;5105068;28;20027;-24
2023/07/23 06:29:16;;;;;;;13.38;4.60;;;;;;;30.32;54.92;100046.88;5104754;28;20030;-23
2023/07/23 06:31:42;;;;;;;10.25;4.28;;;;;;;30.33;53.64;100049.28;5104948;28;20024;-23
2023/07/23 06:34:09;;;;;;;9.05;4.65;;;;;;;30.56;53.38;100040.41;5104786;28;20015;-25
2023/07/23 06:36:34;;;;;;;11.43;4.32;;;;;;;30.59;53.52;100043.25;5104481;28;20111;-23
2023/07/23 06:39:00;;;;;;;13.00;4.28;;;;;;;30.42;53.03;100036.16;5104444;28;20114;-24
2023/07/23 06:41:27;;;;;;;10.40;4.50;;;;;;;30.66;52.44;100031.63;5104930;28;20028;-23
2023/07/23 06:43:53;;;;;;;11.52;4.97;;;;;;;30.71;52.29;100031.38;5104612;28;20723;-23
2023/07/23 06:46:20;;;;;;;12.98;4.78;;;;;;;30.91;51.16;100034.22;5104742;28;20023;-23
2023/07/23 06:48:46;;;;;;;12.48;4.35;;;;;;;30.98;51.86;100034.41;5104305;28;20502;-23
2023/07/23 06:51:11;;;;;;;14.57;4.60;;;;;;;31.58;49.90;100026.69;5104577;28;20055;-27
2023/07/23 06:53:39;;;;;;;11.65;4.65;;;;;;;31.63;49.71;100031.13;5104587;28;20042;-24
2023/07/23 06:56:07;;;;;;;13.70;4.93;;;;;;;31.59;49.63;100025.53;5104399;28;20034;-23
2023/07/23 06:58:35;;;;;;;14.43;4.90;;;;;;;31.72;49.38;100023.44;5104376;28;20028;-24
2023/07/23 07:01:01;;;;;;;9.45;4.30;;;;;;;31.75;49.71;100016.38;5104276;28;20048;-25
2023/07/23 07:03:30;;;;;;;9.73;3.85;;;;;;;31.86;48.49;100027.66;5104029;28;20161;-24
2023/07/23 07:05:59;;;;;;;12.13;4.70;;;;;;;31.68;49.77;100032.78;5104553;28;20115;-23
2023/07/23 07:08:28;;;;;;;12.07;4.30;;;;;;;31.79;49.47;100022.75;5104251;28;20035;-24
2023/07/23 07:11:01;;;;;;;16.33;5.15;;;;;;;31.97;48.50;100029.44;5104070;28;20024;-24
2023/07/23 07:13:28;;;;;;;13.70;5.07;;;;;;;32.22;47.55;100035.47;5104232;28;20114;-24
2023/07/23 07:15:56;;;;;;;11.85;4.95;;;;;;;32.39;43.80;100039.69;5104061;28;20058;-27
2023/07/23 07:18:25;;;;;;;14.00;5.65;;;;;;;32.34;44.75;100028.94;5103947;28;20104;-24
2023/07/23 07:20:54;;;;;;;42.97;21.38;;;;;;;32.29;43.09;100032.03;5105140;28;20035;-24
2023/07/23 07:23:23;;;;;;;13.88;6.50;;;;;;;32.62;43.08;100030.66;5108200;28;20023;-23
2023/07/23 07:25:48;;;;;;;17.48;7.15;;;;;;;32.50;42.86;100039.09;5107999;28;20023;-24
2023/07/23 07:28:14;;;;;;;24.75;11.50;;;;;;;32.53;42.30;100041.91;5107943;28;20030;-24
2023/07/23 07:30:40;;;;;;;14.85;6.55;;;;;;;32.32;41.99;100039.56;5107882;28;20030;-23
2023/07/23 07:33:05;;;;;;;13.85;5.72;;;;;;;32.14;42.70;100032.91;5108134;28;20056;-23
2023/07/23 07:35:31;;;;;;;15.80;6.43;;;;;;;32.50;42.44;100033.56;5107749;28;20104;-24
2023/07/23 07:37:56;;;;;;;13.98;6.20;;;;;;;32.55;40.64;100036.03;5107952;28;20024;-24
2023/07/23 07:40:24;;;;;;;16.45;5.97;;;;;;;32.79;41.53;100029.31;5107968;28;20031;-24
2023/07/23 07:42:49;;;;;;;15.73;6.55;;;;;;;32.87;41.38;100044.06;5107673;27;20491;-24
2023/07/23 07:45:15;;;;;;;17.85;6.38;;;;;;;33.02;40.29;100035.63;5107748;28;20119;-25
2023/07/23 07:47:40;;;;;;;15.18;6.57;;;;;;;32.95;41.64;100031.94;5107734;28;20024;-23
2023/07/23 07:50:08;;;;;;;15.00;6.45;;;;;;;32.92;40.38;100027.97;5107680;28;20479;-23
2023/07/23 07:52:33;;;;;;;15.75;6.88;;;;;;;32.76;40.20;100025.34;5104301;28;20038;-24
2023/07/23 07:54:59;;;;;;;15.68;6.63;;;;;;;32.87;41.70;100027.47;5098868;28;20024;-24
2023/07/23 07:57:26;;;;;;;13.70;6.20;;;;;;;33.06;41.05;100021.03;5087213;28;20378;-24
2023/07/23 07:59:54;;;;;;;16.33;6.32;;;;;;;33.07;40.48;100022.66;5086551;28;20044;-23
2023/07/23 08:02:20;;;;;;;16.38;6.18;;;;;;;33.21;39.68;100023.69;5086504;28;20032;-25
2023/07/23 08:04:46;;;;;;;18.13;8.70;;;;;;;33.51;37.97;100027.59;5086961;28;20024;-24
2023/07/23 08:07:12;;;;;;;19.15;7.32;;;;;;;33.66;36.71;100031.41;5087127;28;20565;-24
2023/07/23 08:09:41;;;;;;;14.07;5.65;;;;;;;33.61;37.17;100030.56;5086784;28;20058;-23
2023/07/23 08:12:08;;;;;;;21.20;6.72;;;;;;;33.68;37.51;100029.06;5086907;28;20020;-25
2023/07/23 08:14:37;;;;;;;12.40;5.68;;;;;;;33.55;37.58;100004.38;5086340;28;20063;-24
2023/07/23 08:17:03;;;;;;;13.82;7.13;;;;;;;34.07;37.37;100029.47;5087108;28;20051;-23
2023/07/23 08:19:31;;;;;;;14.98;6.72;;;;;;;34.32;38.17;100028.97;5086456;28;20055;-24
2023/07/23 08:21:59;;;;;;;12.88;5.47;;;;;;;34.24;34.63;100033.63;5087009;28;20089;-23
2023/07/23 08:24:24;;;;;;;17.52;6.00;;;;;;;33.89;35.48;100023.75;5086314;28;20614;-24
2023/07/23 08:26:50;;;;;;;12.52;5.63;;;;;;;33.98;33.85;100027.03;5086203;28;20119;-23
2023/07/23 08:29:19;;;;;;;13.98;6.72;;;;;;;34.14;34.42;100024.06;5086748;28;20043;-23
2023/07/23 08:31:45;;;;;;;12.38;6.35;;;;;;;34.29;32.65;100024.19;5094896;28;20032;-24
2023/07/23 08:34:11;;;;;;;13.98;5.70;;;;;;;34.22;33.44;100024.91;5100806;28;20462;-24
2023/07/23 08:36:36;;;;;;;13.98;5.28;;;;;;;34.05;33.57;100019.97;5086413;28;20027;-24
2023/07/23 08:39:05;;;;;;;15.57;6.18;;;;;;;34.24;32.85;100024.53;5086318;28;20020;-24
2023/07/23 08:41:51;;;;;;;11.88;6.05;;;;;;;34.34;32.74;100023.84;5090526;28;20506;-24
2023/07/23 08:44:27;;;;;;;12.23;5.72;;;;;;;34.77;31.43;100027.78;5088850;27;20062;-24
2023/07/23 08:47:10;;;;;;;14.15;6.38;;;;;;;34.67;33.17;100020.19;5094258;28;20028;-24
2023/07/23 08:49:42;;;;;;;13.88;6.50;;;;;;;34.69;32.85;100006.75;5100800;28;20039;-24
2023/07/23 08:52:11;;;;;;;15.65;6.28;;;;;;;34.76;32.59;100014.34;5098955;28;20028;-24
2023/07/23 08:54:39;;;;;;;13.32;5.90;;;;;;;34.85;32.76;100020.31;5097119;28;20016;-26
2023/07/23 08:57:06;;;;;;;14.18;5.70;;;;;;;34.93;32.94;100021.16;5086043;28;20036;-24
2023/07/23 08:59:33;;;;;;;13.38;6.35;;;;;;;34.71;32.37;100009.13;5085479;28;20608;-24
2023/07/23 09:02:00;;;;;;;12.75;5.38;;;;;;;35.06;31.95;100016.88;5085712;28;20532;-25
2023/07/23 09:04:26;;;;;;;10.05;5.82;;;;;;;35.17;30.43;100012.25;5090783;28;20035;-24
2023/07/23 09:06:51;;;;;;;14.07;6.93;;;;;;;35.43;29.92;100027.00;5092312;28;20016;-24
2023/07/23 09:09:19;;;;;;;13.13;6.40;;;;;;;35.50;26.73;100018.72;5105133;28;20028;-25
2023/07/23 09:11:44;;;;;;;25.58;13.80;;;;;;;35.86;25.72;100016.13;5101261;28;20568;-24
2023/07/23 09:14:14;;;;;;;22.38;11.60;;;;;;;36.10;25.21;100006.25;5094909;28;20032;-24
2023/07/23 09:16:47;;;;;;;17.13;9.50;;;;;;;36.18;27.10;100001.53;5085992;28;20601;-21
2023/07/23 09:19:20;;;;;;;16.80;6.93;;;;;;;36.00;23.50;100012.56;5095270;28;20027;-25
2023/07/23 09:21:48;;;;;;;13.63;7.43;;;;;;;35.92;22.64;100011.78;5105989;28;20036;-22
2023/07/23 09:24:15;;;;;;;15.32;7.95;;;;;;;36.12;22.91;100006.63;5105979;28;20076;-26
2023/07/23 09:26:41;;;;;;;17.50;6.78;;;;;;;35.91;23.31;100009.38;5104293;28;20042;-22
2023/07/23 09:29:11;;;;;;;18.03;7.17;;;;;;;36.23;23.97;100003.94;5096604;28;20044;-22
2023/07/23 09:31:42;;;;;;;13.20;7.13;;;;;;;36.17;23.44;99994.41;5085047;28;20043;-22
2023/07/23 09:34:08;;;;;;;13.93;8.13;;;;;;;36.30;22.28;99998.38;5087914;28;20059;-23
2023/07/23 09:36:35;;;;;;;15.02;8.88;;;;;;;36.56;22.30;99979.72;5103273;28;20062;-22
2023/07/23 09:39:08;;;;;;;13.43;7.90;;;;;;;36.79;21.96;99991.22;5105477;28;20023;-23
2023/07/23 09:41:36;;;;;;;18.65;10.10;;;;;;;37.04;20.76;100000.69;5105730;28;20147;-22
2023/07/23 09:44:11;;;;;;;17.60;9.70;;;;;;;37.02;21.93;100003.88;5105027;28;20054;-22
2023/07/23 09:46:38;;;;;;;18.27;9.27;;;;;;;37.04;21.93;99995.13;5105374;28;20431;-23
2023/07/23 09:49:03;;;;;;;;;;;;;;;37.01;22.36;99993.97;5105676;27;20207;-23
2023/07/23 09:51:32;;;;;;;14.70;8.17;;;;;;;37.15;22.53;99985.59;5105456;28;20385;-24
2023/07/23 09:54:01;;;;;;;23.55;11.75;;;;;;;37.29;21.16;99984.78;5105378;28;20076;-22
2023/07/23 09:56:27;;;;;;;17.50;10.23;;;;;;;36.79;21.46;99991.22;5105278;28;20106;-23
2023/07/23 09:58:54;;;;;;;20.33;10.77;;;;;;;36.93;20.89;99990.41;5090217;28;20035;-23
2023/07/23 10:01:21;;;;;;;20.57;12.00;;;;;;;37.33;21.22;99979.16;5102337;28;20059;-24
2023/07/23 10:03:54;;;;;;;18.20;9.05;;;;;;;37.40;21.65;99984.72;5084801;28;20069;-23
2023/07/23 10:06:23;;;;;;;17.27;9.00;;;;;;;37.37;20.68;99988.28;5084718;28;20039;-24
2023/07/23 10:08:50;;;;;;;17.98;9.48;;;;;;;37.33;20.03;99984.72;5084803;28;20024;-24
2023/07/23 10:11:17;;;;;;;13.90;9.23;;;;;;;36.94;21.00;99988.41;5084733;28;20058;-24
2023/07/23 10:13:43;;;;;;;14.65;8.77;;;;;;;37.22;20.44;99981.22;5084768;28;20031;-24
2023/07/23 10:16:14;;;;;;;16.07;8.57;;;;;;;37.10;21.52;99987.97;5084833;28;20032;-24
2023/07/23 10:18:41;;;;;;;15.38;8.40;;;;;;;36.96;21.72;99986.03;5084261;28;20284;-24
2023/07/23 10:21:11;;;;;;;17.30;8.70;;;;;;;37.27;21.03;99989.94;5083328;28;20461;-26
2023/07/23 10:23:40;;;;;;;17.23;9.20;;;;;;;37.04;20.94;99967.34;5084279;28;20028;-24
2023/07/23 10:26:39;;;;;;;12.77;8.63;;;;;;;37.11;20.66;99965.38;5089733;28;20027;-24
2023/07/23 10:29:09;;;;;;;20.63;9.82;;;;;;;37.11;21.06;99979.28;5085942;28;20146;-23
2023/07/23 10:31:35;;;;;;;17.08;9.93;;;;;;;37.65;20.53;99967.13;5084540;28;20530;-24
2023/07/23 10:34:01;;;;;;;18.50;8.95;;;;;;;37.87;19.40;99985.28;5084441;28;20520;-25
2023/07/23 10:36:26;;;;;;;16.20;8.88;;;;;;;37.85;19.69;99976.56;5084650;28;20028;-24
2023/07/23 10:39:18;;;;;;;17.50;10.20;;;;;;;38.30;19.50;99978.66;5084510;28;20114;-24
2023/07/23 10:42:02;;;;;;;14.52;9.30;;;;;;;37.97;18.33;99989.22;5084571;28;20028;-26
2023/07/23 10:44:37;;;;;;;16.20;9.27;;;;;;;37.99;17.97;99982.03;5083867;28;20118;-24
2023/07/23 10:47:30;;;;;;;18.15;9.88;;;;;;;37.87;18.60;99967.81;5084432;28;20073;-24
2023/07/23 10:50:13;;;;;;;17.77;10.75;;;;;;;38.29;18.87;99961.16;5084333;28;20059;-25
2023/07/23 10:52:38;;;;;;;18.75;10.10;;;;;;;38.23;18.17;99959.19;5084149;28;20032;-25
2023/07/23 10:55:07;;;;;;;17.70;9.80;;;;;;;38.21;18.32;99970.78;5084279;28;20024;-25
2023/07/23 10:57:38;;;;;;;20.80;13.50;;;;;;;38.52;17.99;99968.16;5092064;28;20023;-24
2023/07/23 11:00:17;;;;;;;18.33;11.80;;;;;;;38.68;18.53;99971.16;5094334;28;20182;-24
2023/07/23 11:02:46;;;;;;;18.15;11.70;;;;;;;39.19;17.99;99957.47;5093853;28;20047;-24
2023/07/23 11:05:13;;;;;;;19.00;12.52;;;;;;;39.24;17.29;99972.97;5088646;28;20020;-26
2023/07/23 11:07:39;;;;;;;24.00;13.73;;;;;;;39.16;17.77;99973.03;5088178;28;20575;-25
2023/07/23 11:10:25;;;;;;;18.00;10.73;;;;;;;39.17;18.15;99957.91;5097618;28;20035;-24
2023/07/23 11:12:54;;;;;;;20.42;12.85;;;;;;;39.25;17.40;99963.38;5088170;28;20030;-25
2023/07/23 11:15:19;;;;;;;17.92;11.88;;;;;;;38.82;17.98;99958.28;5088481;28;20034;-24
2023/07/23 11:17:45;;;;;;;21.75;13.50;;;;;;;38.78;18.10;99956.34;5087978;28;20459;-25
2023/07/23 11:20:16;;;;;;;19.60;12.10;;;;;;;38.97;18.07;99959.75;5088138;28;20177;-24
2023/07/23 11:22:43;;;;;;;26.77;14.70;;;;;;;39.07;18.57;99953.25;5089428;28;20501;-24